sensor_id;sensor_type;location;lat;lon;timestamp;temperature;humidity
85808;DHT22;76250;48.718;9.000;2024-03-17T00:01:42;9.30;67.60
85808;DHT22;76250;48.718;9.000;2024-03-17T00:04:08;9.20;67.50
85808;DHT22;76250;48.718;9.000;2024-03-17T00:06:35;9.20;67.40
85808;DHT22;76250;48.718;9.000;2024-03-17T00:09:02;9.20;67.60
85808;DHT22;76250;48.718;9.000;2024-03-17T00:11:33;9.20;67.90
85808;DHT22;76250;48.718;9.000;2024-03-17T00:14:02;9.10;68.00
85808;DHT22;76250;48.718;9.000;2024-03-17T00:16:29;9.10;68.00
85808;DHT22;76250;48.718;9.000;2024-03-17T00:18:55;9.10;67.90
85808;DHT22;76250;48.718;9.000;2024-03-17T00:21:22;9.10;68.00
85808;DHT22;76250;48.718;9.000;2024-03-17T00:23:50;9.10;68.20
85808;DHT22;76250;48.718;9.000;2024-03-17T00:26:17;9.10;68.10
85808;DHT22;76250;48.718;9.000;2024-03-17T00:28:46;9.10;68.10
85808;DHT22;76250;48.718;9.000;2024-03-17T00:31:14;9.10;67.90
85808;DHT22;76250;48.718;9.000;2024-03-17T00:33:41;9.00;67.80
85808;DHT22;76250;48.718;9.000;2024-03-17T00:36:08;9.00;67.80
85808;DHT22;76250;48.718;9.000;2024-03-17T00:38:35;9.10;67.70
85808;DHT22;76250;48.718;9.000;2024-03-17T00:41:05;9.00;67.70
85808;DHT22;76250;48.718;9.000;2024-03-17T00:43:32;9.00;67.90
85808;DHT22;76250;48.718;9.000;2024-03-17T00:45:59;9.00;68.00
85808;DHT22;76250;48.718;9.000;2024-03-17T00:48:26;8.90;68.60
85808;DHT22;76250;48.718;9.000;2024-03-17T00:50:57;8.90;68.20
85808;DHT22;76250;48.718;9.000;2024-03-17T00:53:25;8.90;68.30
85808;DHT22;76250;48.718;9.000;2024-03-17T00:55:52;8.90;68.30
85808;DHT22;76250;48.718;9.000;2024-03-17T00:58:20;8.90;68.30
85808;DHT22;76250;48.718;9.000;2024-03-17T01:00:47;8.90;68.20
85808;DHT22;76250;48.718;9.000;2024-03-17T01:03:15;8.90;68.10
85808;DHT22;76250;48.718;9.000;2024-03-17T01:05:42;8.90;68.00
85808;DHT22;76250;48.718;9.000;2024-03-17T01:08:11;8.90;68.00
85808;DHT22;76250;48.718;9.000;2024-03-17T01:10:39;8.80;67.90
85808;DHT22;76250;48.718;9.000;2024-03-17T01:13:08;8.80;67.80
85808;DHT22;76250;48.718;9.000;2024-03-17T01:15:35;8.80;67.70
85808;DHT22;76250;48.718;9.000;2024-03-17T01:18:06;8.80;67.80
85808;DHT22;76250;48.718;9.000;2024-03-17T01:20:35;8.80;68.00
85808;DHT22;76250;48.718;9.000;2024-03-17T01:23:04;8.70;68.00
85808;DHT22;76250;48.718;9.000;2024-03-17T01:25:33;8.70;68.00
85808;DHT22;76250;48.718;9.000;2024-03-17T01:28:04;8.70;68.00
85808;DHT22;76250;48.718;9.000;2024-03-17T01:30:31;8.70;68.30
85808;DHT22;76250;48.718;9.000;2024-03-17T01:32:59;8.70;68.20
85808;DHT22;76250;48.718;9.000;2024-03-17T01:35:26;8.70;68.10
85808;DHT22;76250;48.718;9.000;2024-03-17T01:37:53;8.70;68.00
85808;DHT22;76250;48.718;9.000;2024-03-17T01:40:20;8.70;68.00
85808;DHT22;76250;48.718;9.000;2024-03-17T01:42:47;8.70;68.30
85808;DHT22;76250;48.718;9.000;2024-03-17T01:47:44;8.70;68.80
85808;DHT22;76250;48.718;9.000;2024-03-17T01:50:11;8.70;69.00
85808;DHT22;76250;48.718;9.000;2024-03-17T01:52:39;8.70;69.10
85808;DHT22;76250;48.718;9.000;2024-03-17T01:55:06;8.80;69.00
85808;DHT22;76250;48.718;9.000;2024-03-17T01:57:34;8.80;68.90
85808;DHT22;76250;48.718;9.000;2024-03-17T02:00:01;8.80;68.90
85808;DHT22;76250;48.718;9.000;2024-03-17T02:02:34;8.90;68.90
85808;DHT22;76250;48.718;9.000;2024-03-17T02:05:02;8.90;69.10
85808;DHT22;76250;48.718;9.000;2024-03-17T02:07:30;8.90;69.30
85808;DHT22;76250;48.718;9.000;2024-03-17T02:09:57;9.00;69.40
85808;DHT22;76250;48.718;9.000;2024-03-17T02:12:24;9.00;69.50
85808;DHT22;76250;48.718;9.000;2024-03-17T02:14:51;9.00;69.50
85808;DHT22;76250;48.718;9.000;2024-03-17T02:17:18;9.10;69.40
85808;DHT22;76250;48.718;9.000;2024-03-17T02:19:45;9.10;69.40
85808;DHT22;76250;48.718;9.000;2024-03-17T02:22:14;9.20;69.40
85808;DHT22;76250;48.718;9.000;2024-03-17T02:24:43;9.20;69.40
85808;DHT22;76250;48.718;9.000;2024-03-17T02:27:11;9.20;69.30
85808;DHT22;76250;48.718;9.000;2024-03-17T02:29:38;9.20;69.30
85808;DHT22;76250;48.718;9.000;2024-03-17T02:32:06;9.20;69.30
85808;DHT22;76250;48.718;9.000;2024-03-17T02:34:37;9.30;69.30
85808;DHT22;76250;48.718;9.000;2024-03-17T02:37:07;9.30;69.10
85808;DHT22;76250;48.718;9.000;2024-03-17T02:39:35;9.30;69.20
85808;DHT22;76250;48.718;9.000;2024-03-17T02:42:07;9.30;69.00
85808;DHT22;76250;48.718;9.000;2024-03-17T02:44:35;9.30;68.90
85808;DHT22;76250;48.718;9.000;2024-03-17T02:47:04;9.30;69.00
85808;DHT22;76250;48.718;9.000;2024-03-17T02:49:32;9.30;68.80
85808;DHT22;76250;48.718;9.000;2024-03-17T02:52:04;9.30;68.60
85808;DHT22;76250;48.718;9.000;2024-03-17T02:54:32;9.30;68.60
85808;DHT22;76250;48.718;9.000;2024-03-17T02:56:59;9.30;68.60
85808;DHT22;76250;48.718;9.000;2024-03-17T02:59:26;9.20;68.30
85808;DHT22;76250;48.718;9.000;2024-03-17T03:01:52;9.20;68.20
85808;DHT22;76250;48.718;9.000;2024-03-17T03:04:20;9.20;68.10
85808;DHT22;76250;48.718;9.000;2024-03-17T03:06:47;9.20;68.20
85808;DHT22;76250;48.718;9.000;2024-03-17T03:09:15;9.10;68.20
85808;DHT22;76250;48.718;9.000;2024-03-17T03:11:47;9.10;68.20
85808;DHT22;76250;48.718;9.000;2024-03-17T03:14:14;9.10;68.20
85808;DHT22;76250;48.718;9.000;2024-03-17T03:16:41;9.00;68.30
85808;DHT22;76250;48.718;9.000;2024-03-17T03:19:08;9.00;68.40
85808;DHT22;76250;48.718;9.000;2024-03-17T03:21:35;9.00;68.50
85808;DHT22;76250;48.718;9.000;2024-03-17T03:24:02;9.00;68.60
85808;DHT22;76250;48.718;9.000;2024-03-17T03:26:29;8.90;69.00
85808;DHT22;76250;48.718;9.000;2024-03-17T03:28:56;8.90;68.80
85808;DHT22;76250;48.718;9.000;2024-03-17T03:31:23;8.90;68.70
85808;DHT22;76250;48.718;9.000;2024-03-17T03:33:49;8.90;68.80
85808;DHT22;76250;48.718;9.000;2024-03-17T03:36:16;8.90;68.60
85808;DHT22;76250;48.718;9.000;2024-03-17T03:38:43;8.90;68.60
85808;DHT22;76250;48.718;9.000;2024-03-17T03:41:13;8.90;68.60
85808;DHT22;76250;48.718;9.000;2024-03-17T03:43:41;8.90;68.60
85808;DHT22;76250;48.718;9.000;2024-03-17T03:46:08;8.90;68.30
85808;DHT22;76250;48.718;9.000;2024-03-17T03:48:35;8.80;68.20
85808;DHT22;76250;48.718;9.000;2024-03-17T03:51:06;8.80;68.10
85808;DHT22;76250;48.718;9.000;2024-03-17T03:53:34;8.70;68.10
85808;DHT22;76250;48.718;9.000;2024-03-17T03:56:03;8.70;68.10
85808;DHT22;76250;48.718;9.000;2024-03-17T03:58:34;8.70;68.20
85808;DHT22;76250;48.718;9.000;2024-03-17T04:01:08;8.70;68.30
85808;DHT22;76250;48.718;9.000;2024-03-17T04:03:36;8.60;68.30
85808;DHT22;76250;48.718;9.000;2024-03-17T04:06:10;8.60;68.60
85808;DHT22;76250;48.718;9.000;2024-03-17T04:08:39;8.60;68.70
85808;DHT22;76250;48.718;9.000;2024-03-17T04:11:07;8.60;68.70
85808;DHT22;76250;48.718;9.000;2024-03-17T04:13:34;8.60;68.90
85808;DHT22;76250;48.718;9.000;2024-03-17T04:16:05;8.60;69.00
85808;DHT22;76250;48.718;9.000;2024-03-17T04:18:33;8.50;68.80
85808;DHT22;76250;48.718;9.000;2024-03-17T04:21:05;8.50;68.80
85808;DHT22;76250;48.718;9.000;2024-03-17T04:23:35;8.50;68.80
85808;DHT22;76250;48.718;9.000;2024-03-17T04:26:02;8.50;68.80
85808;DHT22;76250;48.718;9.000;2024-03-17T04:28:30;8.50;68.90
85808;DHT22;76250;48.718;9.000;2024-03-17T04:31:07;8.50;69.00
85808;DHT22;76250;48.718;9.000;2024-03-17T04:33:34;8.50;69.10
85808;DHT22;76250;48.718;9.000;2024-03-17T04:36:02;8.50;69.10
85808;DHT22;76250;48.718;9.000;2024-03-17T04:38:30;8.50;69.20
85808;DHT22;76250;48.718;9.000;2024-03-17T04:40:58;8.50;69.10
85808;DHT22;76250;48.718;9.000;2024-03-17T04:43:31;8.50;68.90
85808;DHT22;76250;48.718;9.000;2024-03-17T04:46:03;8.50;69.00
85808;DHT22;76250;48.718;9.000;2024-03-17T04:48:32;8.50;69.00
85808;DHT22;76250;48.718;9.000;2024-03-17T04:50:59;8.50;69.00
85808;DHT22;76250;48.718;9.000;2024-03-17T04:53:27;8.50;69.00
85808;DHT22;76250;48.718;9.000;2024-03-17T04:56:05;8.40;69.00
85808;DHT22;76250;48.718;9.000;2024-03-17T04:58:32;8.40;68.60
85808;DHT22;76250;48.718;9.000;2024-03-17T05:01:05;8.40;68.50
85808;DHT22;76250;48.718;9.000;2024-03-17T05:03:35;8.40;68.60
85808;DHT22;76250;48.718;9.000;2024-03-17T05:06:03;8.40;68.80
85808;DHT22;76250;48.718;9.000;2024-03-17T05:08:32;8.30;68.90
85808;DHT22;76250;48.718;9.000;2024-03-17T05:11:00;8.30;69.10
85808;DHT22;76250;48.718;9.000;2024-03-17T05:13:27;8.30;69.10
85808;DHT22;76250;48.718;9.000;2024-03-17T05:15:54;8.30;69.20
85808;DHT22;76250;48.718;9.000;2024-03-17T05:18:22;8.30;69.40
85808;DHT22;76250;48.718;9.000;2024-03-17T05:20:59;8.40;69.60
85808;DHT22;76250;48.718;9.000;2024-03-17T05:23:31;8.40;69.60
85808;DHT22;76250;48.718;9.000;2024-03-17T05:25:59;8.40;69.60
85808;DHT22;76250;48.718;9.000;2024-03-17T05:28:30;8.40;69.70
85808;DHT22;76250;48.718;9.000;2024-03-17T05:30:57;8.40;69.70
85808;DHT22;76250;48.718;9.000;2024-03-17T05:33:25;8.40;69.70
85808;DHT22;76250;48.718;9.000;2024-03-17T05:35:54;8.40;69.50
85808;DHT22;76250;48.718;9.000;2024-03-17T05:38:23;8.40;69.40
85808;DHT22;76250;48.718;9.000;2024-03-17T05:40:56;8.50;69.40
85808;DHT22;76250;48.718;9.000;2024-03-17T05:43:24;8.40;69.30
85808;DHT22;76250;48.718;9.000;2024-03-17T05:45:56;8.40;69.20
85808;DHT22;76250;48.718;9.000;2024-03-17T05:48:23;8.40;69.10
85808;DHT22;76250;48.718;9.000;2024-03-17T05:50:51;8.40;68.80
85808;DHT22;76250;48.718;9.000;2024-03-17T05:53:18;8.40;68.60
85808;DHT22;76250;48.718;9.000;2024-03-17T05:55:45;8.30;68.80
85808;DHT22;76250;48.718;9.000;2024-03-17T05:58:13;8.30;68.90
85808;DHT22;76250;48.718;9.000;2024-03-17T06:00:40;8.30;69.10
85808;DHT22;76250;48.718;9.000;2024-03-17T06:03:06;8.30;69.50
85808;DHT22;76250;48.718;9.000;2024-03-17T06:05:34;8.30;69.60
85808;DHT22;76250;48.718;9.000;2024-03-17T06:08:03;8.30;69.80
85808;DHT22;76250;48.718;9.000;2024-03-17T06:10:32;8.40;69.90
85808;DHT22;76250;48.718;9.000;2024-03-17T06:12:59;8.40;70.00
85808;DHT22;76250;48.718;9.000;2024-03-17T06:15:27;8.40;70.10
85808;DHT22;76250;48.718;9.000;2024-03-17T06:17:54;8.40;70.00
85808;DHT22;76250;48.718;9.000;2024-03-17T06:20:23;8.50;70.00
85808;DHT22;76250;48.718;9.000;2024-03-17T06:22:54;8.50;69.90
85808;DHT22;76250;48.718;9.000;2024-03-17T06:25:21;8.50;70.00
85808;DHT22;76250;48.718;9.000;2024-03-17T06:27:51;8.60;70.30
85808;DHT22;76250;48.718;9.000;2024-03-17T06:30:19;8.60;70.50
85808;DHT22;76250;48.718;9.000;2024-03-17T06:32:46;8.70;70.50
85808;DHT22;76250;48.718;9.000;2024-03-17T06:35:14;8.70;70.50
85808;DHT22;76250;48.718;9.000;2024-03-17T06:37:42;8.80;70.40
85808;DHT22;76250;48.718;9.000;2024-03-17T06:40:12;8.90;70.50
85808;DHT22;76250;48.718;9.000;2024-03-17T06:42:41;8.90;70.20
85808;DHT22;76250;48.718;9.000;2024-03-17T06:45:09;9.00;70.10
85808;DHT22;76250;48.718;9.000;2024-03-17T06:47:36;9.10;70.10
85808;DHT22;76250;48.718;9.000;2024-03-17T06:50:04;9.10;70.20
85808;DHT22;76250;48.718;9.000;2024-03-17T06:52:31;9.20;70.50
85808;DHT22;76250;48.718;9.000;2024-03-17T06:54:58;9.30;70.70
85808;DHT22;76250;48.718;9.000;2024-03-17T06:57:25;9.30;70.60
85808;DHT22;76250;48.718;9.000;2024-03-17T06:59:52;9.40;70.70
85808;DHT22;76250;48.718;9.000;2024-03-17T07:02:19;9.50;70.60
85808;DHT22;76250;48.718;9.000;2024-03-17T07:04:47;9.60;70.60
85808;DHT22;76250;48.718;9.000;2024-03-17T07:07:14;9.70;70.80
85808;DHT22;76250;48.718;9.000;2024-03-17T07:09:41;9.80;70.70
85808;DHT22;76250;48.718;9.000;2024-03-17T07:12:09;9.90;70.80
85808;DHT22;76250;48.718;9.000;2024-03-17T07:14:37;10.00;70.80
85808;DHT22;76250;48.718;9.000;2024-03-17T07:17:03;10.00;70.70
85808;DHT22;76250;48.718;9.000;2024-03-17T07:19:30;10.10;70.50
85808;DHT22;76250;48.718;9.000;2024-03-17T07:21:59;10.20;70.50
85808;DHT22;76250;48.718;9.000;2024-03-17T07:24:26;10.30;70.40
85808;DHT22;76250;48.718;9.000;2024-03-17T07:26:54;10.30;70.30
85808;DHT22;76250;48.718;9.000;2024-03-17T07:29:20;10.40;70.50
85808;DHT22;76250;48.718;9.000;2024-03-17T07:31:47;10.50;70.40
85808;DHT22;76250;48.718;9.000;2024-03-17T07:34:14;10.70;70.50
85808;DHT22;76250;48.718;9.000;2024-03-17T07:36:41;10.80;70.60
85808;DHT22;76250;48.718;9.000;2024-03-17T07:39:08;10.90;70.40
85808;DHT22;76250;48.718;9.000;2024-03-17T07:41:34;11.00;70.10
85808;DHT22;76250;48.718;9.000;2024-03-17T07:44:01;11.10;70.20
85808;DHT22;76250;48.718;9.000;2024-03-17T07:46:28;11.20;70.10
85808;DHT22;76250;48.718;9.000;2024-03-17T07:48:55;11.30;70.10
85808;DHT22;76250;48.718;9.000;2024-03-17T07:51:22;11.50;70.00
85808;DHT22;76250;48.718;9.000;2024-03-17T07:53:49;11.50;69.80
85808;DHT22;76250;48.718;9.000;2024-03-17T07:56:19;11.70;69.70
85808;DHT22;76250;48.718;9.000;2024-03-17T07:58:46;11.70;69.60
85808;DHT22;76250;48.718;9.000;2024-03-17T08:01:15;11.90;69.40
85808;DHT22;76250;48.718;9.000;2024-03-17T08:03:45;11.90;69.20
85808;DHT22;76250;48.718;9.000;2024-03-17T08:06:15;12.00;69.00
85808;DHT22;76250;48.718;9.000;2024-03-17T08:08:42;12.10;69.00
85808;DHT22;76250;48.718;9.000;2024-03-17T08:11:09;12.20;68.90
85808;DHT22;76250;48.718;9.000;2024-03-17T08:13:36;12.20;68.90
85808;DHT22;76250;48.718;9.000;2024-03-17T08:16:05;12.30;68.90
85808;DHT22;76250;48.718;9.000;2024-03-17T08:18:33;12.30;68.70
85808;DHT22;76250;48.718;9.000;2024-03-17T08:21:01;12.40;68.60
85808;DHT22;76250;48.718;9.000;2024-03-17T08:23:31;12.50;68.50
85808;DHT22;76250;48.718;9.000;2024-03-17T08:26:00;12.60;68.50
85808;DHT22;76250;48.718;9.000;2024-03-17T08:28:28;12.70;68.30
85808;DHT22;76250;48.718;9.000;2024-03-17T08:30:56;12.70;68.00
85808;DHT22;76250;48.718;9.000;2024-03-17T08:33:25;12.80;68.00
85808;DHT22;76250;48.718;9.000;2024-03-17T08:36:10;12.80;67.80
85808;DHT22;76250;48.718;9.000;2024-03-17T08:38:37;12.90;67.60
85808;DHT22;76250;48.718;9.000;2024-03-17T08:41:09;13.00;67.60
85808;DHT22;76250;48.718;9.000;2024-03-17T08:43:37;13.00;67.60
85808;DHT22;76250;48.718;9.000;2024-03-17T08:46:06;13.10;67.50
85808;DHT22;76250;48.718;9.000;2024-03-17T08:48:38;13.10;67.20
85808;DHT22;76250;48.718;9.000;2024-03-17T08:51:07;13.20;67.30
85808;DHT22;76250;48.718;9.000;2024-03-17T08:53:35;13.30;67.30
85808;DHT22;76250;48.718;9.000;2024-03-17T08:56:03;13.40;67.10
85808;DHT22;76250;48.718;9.000;2024-03-17T08:58:30;13.50;67.00
85808;DHT22;76250;48.718;9.000;2024-03-17T09:00:57;13.60;67.50
85808;DHT22;76250;48.718;9.000;2024-03-17T09:03:24;13.60;66.60
85808;DHT22;76250;48.718;9.000;2024-03-17T09:05:53;13.70;65.90
85808;DHT22;76250;48.718;9.000;2024-03-17T09:08:22;13.70;65.70
85808;DHT22;76250;48.718;9.000;2024-03-17T09:10:51;13.80;65.50
85808;DHT22;76250;48.718;9.000;2024-03-17T09:13:21;13.90;64.60
85808;DHT22;76250;48.718;9.000;2024-03-17T09:15:55;14.00;64.20
85808;DHT22;76250;48.718;9.000;2024-03-17T09:18:23;14.10;63.50
85808;DHT22;76250;48.718;9.000;2024-03-17T09:21:03;14.10;63.60
85808;DHT22;76250;48.718;9.000;2024-03-17T09:23:36;14.20;63.20
85808;DHT22;76250;48.718;9.000;2024-03-17T09:26:08;14.30;63.20
85808;DHT22;76250;48.718;9.000;2024-03-17T09:28:36;14.30;63.20
85808;DHT22;76250;48.718;9.000;2024-03-17T09:31:03;14.40;62.80
85808;DHT22;76250;48.718;9.000;2024-03-17T09:33:34;14.50;62.30
85808;DHT22;76250;48.718;9.000;2024-03-17T09:36:05;14.50;61.90
85808;DHT22;76250;48.718;9.000;2024-03-17T09:38:34;14.60;61.70
85808;DHT22;76250;48.718;9.000;2024-03-17T09:41:02;14.60;61.80
85808;DHT22;76250;48.718;9.000;2024-03-17T09:43:31;14.70;61.30
85808;DHT22;76250;48.718;9.000;2024-03-17T09:46:02;14.70;60.60
85808;DHT22;76250;48.718;9.000;2024-03-17T09:48:30;14.70;59.30
85808;DHT22;76250;48.718;9.000;2024-03-17T09:51:01;14.70;60.10
85808;DHT22;76250;48.718;9.000;2024-03-17T09:53:33;14.80;60.10
85808;DHT22;76250;48.718;9.000;2024-03-17T09:56:09;14.80;60.60
85808;DHT22;76250;48.718;9.000;2024-03-17T09:58:42;14.80;60.60
85808;DHT22;76250;48.718;9.000;2024-03-17T10:01:09;14.90;60.80
85808;DHT22;76250;48.718;9.000;2024-03-17T10:06:13;14.90;60.30
85808;DHT22;76250;48.718;9.000;2024-03-17T10:08:49;15.00;59.50
85808;DHT22;76250;48.718;9.000;2024-03-17T10:11:21;15.00;59.50
85808;DHT22;76250;48.718;9.000;2024-03-17T10:14:04;15.10;59.70
85808;DHT22;76250;48.718;9.000;2024-03-17T10:16:36;15.10;58.90
85808;DHT22;76250;48.718;9.000;2024-03-17T10:19:23;15.20;59.50
85808;DHT22;76250;48.718;9.000;2024-03-17T10:22:01;15.20;59.70
85808;DHT22;76250;48.718;9.000;2024-03-17T10:24:29;15.30;59.20
85808;DHT22;76250;48.718;9.000;2024-03-17T10:26:57;15.40;59.70
85808;DHT22;76250;48.718;9.000;2024-03-17T10:29:30;15.50;59.10
85808;DHT22;76250;48.718;9.000;2024-03-17T10:32:04;15.60;57.00
85808;DHT22;76250;48.718;9.000;2024-03-17T10:34:39;15.60;58.20
85808;DHT22;76250;48.718;9.000;2024-03-17T10:37:17;15.70;58.60
85808;DHT22;76250;48.718;9.000;2024-03-17T10:39:54;15.70;58.80
85808;DHT22;76250;48.718;9.000;2024-03-17T10:42:26;15.70;58.10
85808;DHT22;76250;48.718;9.000;2024-03-17T10:44:58;15.80;57.90
85808;DHT22;76250;48.718;9.000;2024-03-17T10:47:26;15.90;58.10
85808;DHT22;76250;48.718;9.000;2024-03-17T10:49:55;16.00;57.90
85808;DHT22;76250;48.718;9.000;2024-03-17T10:52:23;16.00;56.40
85808;DHT22;76250;48.718;9.000;2024-03-17T10:54:55;16.10;55.80
85808;DHT22;76250;48.718;9.000;2024-03-17T11:00:00;16.20;55.90
85808;DHT22;76250;48.718;9.000;2024-03-17T11:02:32;16.20;56.30
85808;DHT22;76250;48.718;9.000;2024-03-17T11:05:21;16.20;55.70
85808;DHT22;76250;48.718;9.000;2024-03-17T11:07:51;16.10;56.20
85808;DHT22;76250;48.718;9.000;2024-03-17T11:10:22;16.10;56.00
85808;DHT22;76250;48.718;9.000;2024-03-17T11:12:51;16.10;56.30
85808;DHT22;76250;48.718;9.000;2024-03-17T11:17:53;16.00;55.90
85808;DHT22;76250;48.718;9.000;2024-03-17T11:20:29;16.00;56.00
85808;DHT22;76250;48.718;9.000;2024-03-17T11:22:58;16.00;56.60
85808;DHT22;76250;48.718;9.000;2024-03-17T11:47:04;16.20;55.80
85808;DHT22;76250;48.718;9.000;2024-03-17T11:52:12;16.20;54.80
85808;DHT22;76250;48.718;9.000;2024-03-17T11:54:46;16.20;54.50
85808;DHT22;76250;48.718;9.000;2024-03-17T11:57:23;16.30;54.80
85808;DHT22;76250;48.718;9.000;2024-03-17T11:59:51;16.30;55.00
85808;DHT22;76250;48.718;9.000;2024-03-17T12:02:23;16.30;55.20
85808;DHT22;76250;48.718;9.000;2024-03-17T12:04:53;16.40;55.00
85808;DHT22;76250;48.718;9.000;2024-03-17T12:07:27;16.40;54.60
85808;DHT22;76250;48.718;9.000;2024-03-17T12:09:56;16.50;55.00
85808;DHT22;76250;48.718;9.000;2024-03-17T12:12:25;16.50;54.50
85808;DHT22;76250;48.718;9.000;2024-03-17T12:15:03;16.50;54.40
85808;DHT22;76250;48.718;9.000;2024-03-17T12:17:42;16.50;54.70
85808;DHT22;76250;48.718;9.000;2024-03-17T12:20:17;16.50;54.20
85808;DHT22;76250;48.718;9.000;2024-03-17T12:22:47;16.50;54.00
85808;DHT22;76250;48.718;9.000;2024-03-17T12:25:19;16.50;54.70
85808;DHT22;76250;48.718;9.000;2024-03-17T12:27:47;16.50;53.90
85808;DHT22;76250;48.718;9.000;2024-03-17T12:30:15;16.40;54.20
85808;DHT22;76250;48.718;9.000;2024-03-17T12:32:44;16.50;54.60
85808;DHT22;76250;48.718;9.000;2024-03-17T12:35:15;16.50;54.60
85808;DHT22;76250;48.718;9.000;2024-03-17T12:37:44;16.50;53.70
85808;DHT22;76250;48.718;9.000;2024-03-17T12:40:19;16.50;54.30
85808;DHT22;76250;48.718;9.000;2024-03-17T12:42:51;16.40;54.50
85808;DHT22;76250;48.718;9.000;2024-03-17T12:45:22;16.50;54.50
85808;DHT22;76250;48.718;9.000;2024-03-17T12:47:50;16.50;54.50
85808;DHT22;76250;48.718;9.000;2024-03-17T12:50:17;16.50;54.30
85808;DHT22;76250;48.718;9.000;2024-03-17T12:52:53;16.60;54.30
85808;DHT22;76250;48.718;9.000;2024-03-17T12:55:21;16.60;54.30
85808;DHT22;76250;48.718;9.000;2024-03-17T12:58:08;16.60;54.50
85808;DHT22;76250;48.718;9.000;2024-03-17T13:00:57;16.60;54.10
85808;DHT22;76250;48.718;9.000;2024-03-17T13:03:32;16.60;54.30
85808;DHT22;76250;48.718;9.000;2024-03-17T13:06:04;16.60;54.50
85808;DHT22;76250;48.718;9.000;2024-03-17T13:08:35;16.70;54.40
85808;DHT22;76250;48.718;9.000;2024-03-17T13:11:02;16.70;54.20
85808;DHT22;76250;48.718;9.000;2024-03-17T13:13:32;16.70;54.50
85808;DHT22;76250;48.718;9.000;2024-03-17T13:15:59;16.80;54.50
85808;DHT22;76250;48.718;9.000;2024-03-17T13:18:25;16.80;54.50
85808;DHT22;76250;48.718;9.000;2024-03-17T13:20:52;16.90;53.90
85808;DHT22;76250;48.718;9.000;2024-03-17T13:23:20;16.90;54.10
85808;DHT22;76250;48.718;9.000;2024-03-17T13:25:51;16.90;54.00
85808;DHT22;76250;48.718;9.000;2024-03-17T13:28:18;17.00;53.80
85808;DHT22;76250;48.718;9.000;2024-03-17T13:30:45;17.00;53.70
85808;DHT22;76250;48.718;9.000;2024-03-17T13:33:13;17.00;54.10
85808;DHT22;76250;48.718;9.000;2024-03-17T13:35:42;17.10;53.90
85808;DHT22;76250;48.718;9.000;2024-03-17T13:38:10;17.10;53.30
85808;DHT22;76250;48.718;9.000;2024-03-17T13:40:39;17.10;53.50
85808;DHT22;76250;48.718;9.000;2024-03-17T13:43:06;17.10;53.20
85808;DHT22;76250;48.718;9.000;2024-03-17T13:45:39;17.20;53.30
85808;DHT22;76250;48.718;9.000;2024-03-17T13:48:07;17.20;52.60
85808;DHT22;76250;48.718;9.000;2024-03-17T13:50:40;17.20;52.50
85808;DHT22;76250;48.718;9.000;2024-03-17T13:53:11;17.20;53.00
85808;DHT22;76250;48.718;9.000;2024-03-17T13:55:38;17.20;53.00
85808;DHT22;76250;48.718;9.000;2024-03-17T13:58:05;17.20;52.70
85808;DHT22;76250;48.718;9.000;2024-03-17T14:00:32;17.20;52.60
85808;DHT22;76250;48.718;9.000;2024-03-17T14:03:04;17.30;53.50
85808;DHT22;76250;48.718;9.000;2024-03-17T14:05:31;17.30;52.20
85808;DHT22;76250;48.718;9.000;2024-03-17T14:08:01;17.30;52.80
85808;DHT22;76250;48.718;9.000;2024-03-17T14:10:28;17.40;52.70
85808;DHT22;76250;48.718;9.000;2024-03-17T14:12:54;17.40;52.40
85808;DHT22;76250;48.718;9.000;2024-03-17T14:15:23;17.40;52.50
85808;DHT22;76250;48.718;9.000;2024-03-17T14:17:50;17.40;52.10
85808;DHT22;76250;48.718;9.000;2024-03-17T14:20:17;17.40;51.50
85808;DHT22;76250;48.718;9.000;2024-03-17T14:22:45;17.40;51.40
85808;DHT22;76250;48.718;9.000;2024-03-17T14:25:17;17.40;51.20
85808;DHT22;76250;48.718;9.000;2024-03-17T14:27:46;17.30;50.80
85808;DHT22;76250;48.718;9.000;2024-03-17T14:30:16;17.30;51.70
85808;DHT22;76250;48.718;9.000;2024-03-17T14:32:44;17.30;51.70
85808;DHT22;76250;48.718;9.000;2024-03-17T14:35:20;17.30;51.90
85808;DHT22;76250;48.718;9.000;2024-03-17T14:37:49;17.20;51.90
85808;DHT22;76250;48.718;9.000;2024-03-17T14:40:19;17.20;51.90
85808;DHT22;76250;48.718;9.000;2024-03-17T14:42:48;17.20;51.70
85808;DHT22;76250;48.718;9.000;2024-03-17T14:45:19;17.20;51.20
85808;DHT22;76250;48.718;9.000;2024-03-17T14:47:47;17.20;51.50
85808;DHT22;76250;48.718;9.000;2024-03-17T14:50:13;17.20;52.30
85808;DHT22;76250;48.718;9.000;2024-03-17T14:52:43;17.20;51.80
85808;DHT22;76250;48.718;9.000;2024-03-17T14:55:10;17.20;51.30
85808;DHT22;76250;48.718;9.000;2024-03-17T14:57:38;17.20;51.30
85808;DHT22;76250;48.718;9.000;2024-03-17T15:00:07;17.20;51.80
85808;DHT22;76250;48.718;9.000;2024-03-17T15:02:47;17.20;51.90
85808;DHT22;76250;48.718;9.000;2024-03-17T15:05:16;17.20;51.80
85808;DHT22;76250;48.718;9.000;2024-03-17T15:07:48;17.20;51.40
85808;DHT22;76250;48.718;9.000;2024-03-17T15:10:15;17.20;51.60
85808;DHT22;76250;48.718;9.000;2024-03-17T15:12:42;17.20;51.50
85808;DHT22;76250;48.718;9.000;2024-03-17T15:15:09;17.10;50.90
85808;DHT22;76250;48.718;9.000;2024-03-17T15:17:37;17.10;51.30
85808;DHT22;76250;48.718;9.000;2024-03-17T15:20:05;17.10;51.30
85808;DHT22;76250;48.718;9.000;2024-03-17T15:22:45;17.10;51.10
85808;DHT22;76250;48.718;9.000;2024-03-17T15:25:13;17.00;50.50
85808;DHT22;76250;48.718;9.000;2024-03-17T15:27:43;17.00;50.10
85808;DHT22;76250;48.718;9.000;2024-03-17T15:30:15;16.90;50.00
85808;DHT22;76250;48.718;9.000;2024-03-17T15:32:46;16.90;50.40
85808;DHT22;76250;48.718;9.000;2024-03-17T15:35:13;16.90;50.50
85808;DHT22;76250;48.718;9.000;2024-03-17T15:37:41;16.80;50.70
85808;DHT22;76250;48.718;9.000;2024-03-17T15:40:09;16.70;50.60
85808;DHT22;76250;48.718;9.000;2024-03-17T15:42:49;16.70;50.70
85808;DHT22;76250;48.718;9.000;2024-03-17T15:45:17;16.60;50.70
85808;DHT22;76250;48.718;9.000;2024-03-17T15:47:47;16.60;51.10
85808;DHT22;76250;48.718;9.000;2024-03-17T15:50:14;16.50;51.50
85808;DHT22;76250;48.718;9.000;2024-03-17T15:52:42;16.50;51.40
85808;DHT22;76250;48.718;9.000;2024-03-17T15:55:09;16.50;51.80
85808;DHT22;76250;48.718;9.000;2024-03-17T15:57:36;16.40;52.00
85808;DHT22;76250;48.718;9.000;2024-03-17T16:00:03;16.40;51.80
85808;DHT22;76250;48.718;9.000;2024-03-17T16:02:38;16.30;51.90
85808;DHT22;76250;48.718;9.000;2024-03-17T16:05:05;16.30;52.10
85808;DHT22;76250;48.718;9.000;2024-03-17T16:07:38;16.20;52.00
85808;DHT22;76250;48.718;9.000;2024-03-17T16:10:05;16.20;52.10
85808;DHT22;76250;48.718;9.000;2024-03-17T16:12:36;16.10;52.00
85808;DHT22;76250;48.718;9.000;2024-03-17T16:15:03;16.10;52.00
85808;DHT22;76250;48.718;9.000;2024-03-17T16:17:31;16.10;52.00
85808;DHT22;76250;48.718;9.000;2024-03-17T16:19:58;16.00;52.40
85808;DHT22;76250;48.718;9.000;2024-03-17T16:22:26;15.90;52.60
85808;DHT22;76250;48.718;9.000;2024-03-17T16:24:53;15.90;52.60